Time;durP1;ratioP1;P1;durP2;ratioP2;P2;SDS_P1;SDS_P2;PMS_P1;PMS_P2;Temp;Humidity;BMP_temperature;BMP_pressure;BME280_temperature;BME280_humidity;BME280_pressure;Samples;Min_cycle;Max_cycle;Signal;HPM_P1;HPM_P2
2022/01/18 00:00:27;;;;;;;54.13;14.88;;;;;;;2.85;100.00;103639.34;4989661;28;20368;-89
2022/01/18 00:02:53;;;;;;;60.72;15.90;;;;;;;2.92;100.00;103634.25;4990857;28;20072;-89
2022/01/18 00:05:18;;;;;;;57.50;16.55;;;;;;;2.99;100.00;103622.16;4986906;28;20116;-89
2022/01/18 00:07:46;;;;;;;56.50;17.83;;;;;;;3.14;100.00;103640.97;4986074;28;20455;-89
2022/01/18 00:10:12;;;;;;;49.30;16.02;;;;;;;3.22;100.00;103651.69;4986484;28;20092;-89
2022/01/18 00:18:08;;;;;;;50.90;16.08;;;;;;;3.40;100.00;103649.50;4980442;28;20092;-90
2022/01/18 00:23:19;;;;;;;62.25;18.20;;;;;;;3.52;100.00;103643.63;4989793;28;20034;-90
2022/01/18 00:25:48;;;;;;;49.65;16.10;;;;;;;3.57;100.00;103644.63;4987566;28;20437;-89
2022/01/18 00:28:15;;;;;;;50.72;17.30;;;;;;;3.61;100.00;103646.47;4990103;28;20432;-89
2022/01/18 00:36:09;;;;;;;56.75;17.02;;;;;;;3.70;100.00;103651.94;4986933;28;20038;-90
2022/01/18 00:38:48;;;;;;;55.00;16.20;;;;;;;3.72;100.00;103659.88;4991237;28;20018;-90
2022/01/18 00:41:15;;;;;;;44.35;16.08;;;;;;;3.75;100.00;103666.09;4989899;28;20088;-89
2022/01/18 00:43:42;;;;;;;46.38;17.02;;;;;;;3.78;100.00;103659.13;4989613;28;20031;-89
2022/01/18 00:46:08;;;;;;;59.17;15.52;;;;;;;3.80;100.00;103662.69;4988139;28;20491;-88
2022/01/18 00:48:35;;;;;;;48.00;15.73;;;;;;;3.81;100.00;103661.84;4990491;28;20038;-88
2022/01/18 00:51:03;;;;;;;48.83;16.00;;;;;;;3.81;100.00;103668.00;4990522;28;20050;-88
2022/01/18 00:53:35;;;;;;;48.00;15.38;;;;;;;3.85;100.00;103664.59;4987049;28;20022;-88
2022/01/18 00:58:34;;;;;;;41.42;15.13;;;;;;;3.91;100.00;103666.44;4985802;28;20544;-89
2022/01/18 01:01:00;;;;;;;45.75;15.73;;;;;;;3.89;100.00;103657.63;4989330;28;20065;-88
2022/01/18 01:03:26;;;;;;;48.33;15.68;;;;;;;3.94;100.00;103663.91;4982358;28;20515;-89
2022/01/18 01:05:51;;;;;;;48.72;15.40;;;;;;;3.94;100.00;103671.81;4972027;28;20472;-89
2022/01/18 01:08:16;;;;;;;49.42;16.33;;;;;;;3.96;100.00;103662.16;4988445;28;20464;-89
2022/01/18 01:10:42;;;;;;;50.83;15.65;;;;;;;3.96;100.00;103659.53;4989857;28;20038;-89
2022/01/18 01:13:08;;;;;;;54.80;15.57;;;;;;;3.98;100.00;103668.38;4990908;28;20053;-89
2022/01/18 01:15:40;;;;;;;50.15;15.10;;;;;;;3.98;100.00;103668.38;4983706;28;20019;-89
2022/01/18 01:18:17;;;;;;;41.83;15.07;;;;;;;3.99;100.00;103664.88;4986146;28;20030;-88
2022/01/18 01:34:39;;;;;;;48.95;14.30;;;;;;;4.00;100.00;103661.38;4989064;28;20064;-88
2022/01/18 01:41:41;;;;;;;40.20;14.55;;;;;;;3.97;100.00;103667.50;4989053;28;20492;-89
2022/01/18 01:43:13;;;;;;;51.63;14.98;;;;;;;3.99;100.00;103660.50;4989230;28;20046;-88
2022/01/18 01:45:39;;;;;;;46.67;15.25;;;;;;;4.05;100.00;103670.25;4986133;28;20472;-89
2022/01/18 01:48:04;;;;;;;42.92;14.57;;;;;;;4.07;100.00;103667.69;4988111;28;20514;-88
2022/01/18 01:50:44;;;;;;;44.55;14.18;;;;;;;4.09;100.00;103668.59;4988587;28;20054;-89
2022/01/18 01:53:09;;;;;;;46.75;14.85;;;;;;;4.07;100.00;103662.41;4988426;28;20030;-90
2022/01/18 01:55:35;;;;;;;44.88;15.43;;;;;;;4.10;100.00;103676.56;4986832;28;20034;-89
2022/01/18 01:58:01;;;;;;;47.67;14.65;;;;;;;4.07;100.00;103665.94;4988842;28;20084;-89
2022/01/18 02:00:26;;;;;;;45.33;15.25;;;;;;;4.11;100.00;103680.06;4988205;28;20468;-89
2022/01/18 02:02:51;;;;;;;57.63;15.43;;;;;;;4.11;100.00;103680.06;4988051;28;20034;-89
2022/01/18 02:05:17;;;;;;;53.88;16.40;;;;;;;4.11;100.00;103675.69;4985827;28;20037;-90
2022/01/18 02:07:42;;;;;;;47.90;15.23;;;;;;;4.11;100.00;103677.44;4988963;28;20057;-91
2022/01/18 02:10:10;;;;;;;61.20;16.88;;;;;;;4.08;100.00;103672.09;4988372;28;20038;-90
2022/01/18 02:12:36;;;;;;;62.30;17.25;;;;;;;4.14;100.00;103680.09;4971209;28;20033;-90
2022/01/18 02:15:10;;;;;;;57.67;17.40;;;;;;;4.10;100.00;103675.66;4985266;28;20058;-91
2022/01/18 02:23:22;;;;;;;62.33;18.70;;;;;;;4.13;100.00;103668.69;4982148;28;20093;-90
2022/01/18 02:25:48;;;;;;;67.40;20.10;;;;;;;4.13;100.00;103665.16;4988597;28;20031;-90
2022/01/18 02:28:16;;;;;;;54.38;17.65;;;;;;;4.09;100.00;103658.94;4988419;28;20039;-90
2022/01/18 02:30:41;;;;;;;62.03;19.35;;;;;;;4.12;100.00;103659.00;4989875;28;20073;-90
2022/01/18 02:33:07;;;;;;;71.57;20.23;;;;;;;4.11;100.00;103669.53;4989196;28;20019;-90
2022/01/18 02:35:36;;;;;;;64.10;18.90;;;;;;;4.12;100.00;103660.75;4967396;28;20045;-90
2022/01/18 02:38:04;;;;;;;58.28;18.95;;;;;;;4.08;100.00;103654.53;4989951;28;20031;-90
2022/01/18 02:40:30;;;;;;;57.33;19.02;;;;;;;4.12;100.00;103659.00;4989993;28;20038;-90
2022/01/18 02:43:00;;;;;;;61.85;20.80;;;;;;;4.11;100.00;103653.72;4988522;28;20073;-90
2022/01/18 02:45:25;;;;;;;53.40;18.42;;;;;;;4.13;100.00;103654.63;4986126;28;20043;-90
2022/01/18 02:47:51;;;;;;;62.03;20.52;;;;;;;4.14;100.00;103657.31;4988171;28;20034;-90
2022/01/18 02:50:18;;;;;;;64.43;20.48;;;;;;;4.13;100.00;103662.53;4988344;28;20096;-90
2022/01/18 02:52:43;;;;;;;62.20;20.05;;;;;;;4.15;100.00;103660.81;4989125;28;20038;-90
2022/01/18 02:55:09;;;;;;;68.80;20.27;;;;;;;4.12;100.00;103659.00;4986255;28;20387;-90
2022/01/18 02:57:42;;;;;;;55.88;20.25;;;;;;;4.15;100.00;103650.28;4988863;28;20046;-90
2022/01/18 03:00:19;;;;;;;51.63;19.85;;;;;;;4.16;100.00;103649.41;4987795;28;20045;-91
2022/01/18 03:05:28;;;;;;;62.53;21.88;;;;;;;4.13;100.00;103651.97;4986113;28;20046;-91
2022/01/18 03:07:54;;;;;;;65.80;21.27;;;;;;;4.17;100.00;103651.19;4988577;28;20026;-90
2022/01/18 03:10:19;;;;;;;62.40;20.65;;;;;;;4.15;100.00;103660.81;4988868;28;20038;-91
2022/01/18 03:12:45;;;;;;;64.88;20.65;;;;;;;4.16;100.00;103665.22;4988393;28;20388;-91
2022/01/18 03:15:10;;;;;;;64.53;22.17;;;;;;;4.13;100.00;103657.25;4986265;28;20030;-90
2022/01/18 03:17:36;;;;;;;60.03;20.48;;;;;;;4.11;100.00;103657.22;4989184;28;20026;-91
2022/01/18 03:20:03;;;;;;;58.90;21.13;;;;;;;4.16;100.00;103662.59;4988625;28;20495;-91
2022/01/18 03:22:28;;;;;;;62.13;21.17;;;;;;;4.13;100.00;103668.69;4989083;28;20046;-90
2022/01/18 03:25:13;;;;;;;70.75;22.63;;;;;;;4.13;100.00;103668.69;4985824;28;20030;-90
2022/01/18 03:30:22;;;;;;;60.22;21.50;;;;;;;4.13;100.00;103678.34;4988370;28;20046;-91
2022/01/18 03:32:47;;;;;;;62.70;22.13;;;;;;;4.09;100.00;103663.31;4988599;28;20389;-90
2022/01/18 03:35:12;;;;;;;64.28;22.33;;;;;;;4.11;100.00;103667.78;4986892;28;20034;-90
2022/01/18 03:37:39;;;;;;;64.72;24.45;;;;;;;4.08;100.00;103665.06;4988629;28;20035;-91
2022/01/18 03:40:06;;;;;;;66.32;22.88;;;;;;;4.09;100.00;103658.94;4990934;28;20030;-90
2022/01/18 03:45:03;;;;;;;67.97;23.08;;;;;;;4.08;100.00;103669.44;4990337;28;20035;-90
2022/01/18 03:47:29;;;;;;;59.83;25.83;;;;;;;4.05;100.00;103665.00;4988139;28;20085;-90
2022/01/18 03:49:54;;;;;;;58.55;23.70;;;;;;;4.06;100.00;103664.16;4989017;28;20427;-91
2022/01/18 03:52:19;;;;;;;57.88;23.92;;;;;;;4.06;100.00;103664.16;4990104;28;20030;-91
2022/01/18 03:54:47;;;;;;;66.68;25.27;;;;;;;4.03;100.00;103664.09;4991851;28;20507;-91
2022/01/18 03:57:16;;;;;;;54.08;24.25;;;;;;;4.03;100.00;103671.09;4987598;28;20046;-90
2022/01/18 03:59:42;;;;;;;58.17;24.17;;;;;;;4.05;100.00;103677.28;4990838;28;20033;-91
2022/01/18 04:02:08;;;;;;;65.28;25.73;;;;;;;4.00;100.00;103678.06;4988921;28;20026;-91
2022/01/18 04:04:34;;;;;;;60.55;25.33;;;;;;;3.99;100.00;103675.41;4989399;28;20144;-91
2022/01/18 04:06:59;;;;;;;62.55;25.02;;;;;;;4.04;100.00;103681.66;4987548;28;20018;-91
2022/01/18 04:09:25;;;;;;;55.65;24.92;;;;;;;4.03;100.00;103686.91;4987357;28;20061;-90
2022/01/18 04:11:51;;;;;;;64.43;25.95;;;;;;;4.03;100.00;103679.00;4990718;28;20058;-90
2022/01/18 04:14:16;;;;;;;62.08;25.65;;;;;;;4.02;100.00;103682.50;4991392;28;20026;-90
2022/01/18 04:16:57;;;;;;;69.40;25.80;;;;;;;4.00;100.00;103678.06;4970962;28;20026;-89
2022/01/18 04:27:52;;;;;;;62.08;26.13;;;;;;;3.97;100.00;103678.03;4990088;28;20045;-89
2022/01/18 04:30:18;;;;;;;52.17;25.27;;;;;;;3.97;100.00;103696.47;4991450;28;20070;-89
2022/01/18 04:32:43;;;;;;;55.40;26.60;;;;;;;4.00;100.00;103688.63;4991820;28;20060;-89
2022/01/18 04:35:09;;;;;;;64.00;27.85;;;;;;;3.96;100.00;103681.50;4989814;28;20483;-89
2022/01/18 04:37:34;;;;;;;62.67;27.67;;;;;;;4.00;100.00;103691.25;4991399;28;20038;-90
2022/01/18 04:40:06;;;;;;;64.55;27.85;;;;;;;3.98;100.00;103690.34;4973904;28;20022;-90
2022/01/18 04:42:48;;;;;;;68.45;28.40;;;;;;;3.99;100.00;103683.31;4990633;28;20065;-89
2022/01/18 04:50:41;;;;;;;68.43;27.48;;;;;;;3.98;100.00;103689.47;4990499;28;19997;-88
2022/01/18 04:53:06;;;;;;;63.53;27.00;;;;;;;3.95;100.00;103685.00;4990008;28;20035;-89
2022/01/18 04:55:33;;;;;;;61.72;26.67;;;;;;;3.96;100.00;103686.78;4988674;28;20611;-89
2022/01/18 04:57:58;;;;;;;66.50;28.17;;;;;;;3.98;100.00;103685.06;4990841;28;20073;-90
2022/01/18 05:00:25;;;;;;;53.83;27.58;;;;;;;4.00;100.00;103693.00;4990086;28;20479;-88
2022/01/18 05:02:52;;;;;;;58.20;27.35;;;;;;;4.01;100.00;103700.03;4991898;28;20085;-89
2022/01/18 05:05:30;;;;;;;54.92;27.40;;;;;;;4.01;100.00;103700.03;4988400;28;20121;-89
2022/01/18 05:07:59;;;;;;;55.15;27.30;;;;;;;4.04;100.00;103704.50;4975632;28;20060;-89
2022/01/18 05:10:28;;;;;;;59.72;27.50;;;;;;;4.05;100.00;103698.38;4990940;28;20435;-88
2022/01/18 05:12:55;;;;;;;67.57;26.77;;;;;;;4.06;100.00;103698.41;4990131;28;20080;-89
2022/01/18 05:18:54;;;;;;;59.67;27.20;;;;;;;4.09;100.00;103703.75;4972337;28;20031;-89
2022/01/18 05:21:11;;;;;;;68.25;26.77;;;;;;;4.11;100.00;103714.34;4989076;28;20034;-89
2022/01/18 05:23:36;;;;;;;67.47;28.50;;;;;;;4.11;100.00;103714.34;4989944;28;20512;-89
2022/01/18 05:26:02;;;;;;;68.25;27.73;;;;;;;4.08;100.00;103709.00;4987730;28;20110;-88
2022/01/18 05:28:27;;;;;;;65.43;27.70;;;;;;;4.13;100.00;103715.25;4989811;28;20088;-88
2022/01/18 05:30:53;;;;;;;71.40;29.15;;;;;;;4.13;100.00;103709.97;4989337;28;20121;-88
2022/01/18 05:33:18;;;;;;;64.63;27.45;;;;;;;4.11;100.00;103711.69;4972837;28;20030;-88
2022/01/18 05:35:44;;;;;;;61.55;26.67;;;;;;;4.09;100.00;103706.38;4986975;28;20173;-88
2022/01/18 05:38:10;;;;;;;62.58;26.75;;;;;;;4.11;100.00;103706.44;4988318;28;20030;-88
2022/01/18 05:40:36;;;;;;;71.40;27.20;;;;;;;4.08;100.00;103699.34;4989952;28;20519;-88
2022/01/18 05:43:01;;;;;;;62.28;27.13;;;;;;;4.09;100.00;103702.84;4989253;28;20400;-88
2022/01/18 05:45:26;;;;;;;62.35;27.20;;;;;;;4.08;100.00;103698.44;4986926;28;20026;-88
2022/01/18 05:47:51;;;;;;;66.80;26.33;;;;;;;4.10;100.00;103712.56;4989606;28;20078;-88
2022/01/18 05:50:17;;;;;;;75.00;26.17;;;;;;;4.10;100.00;103709.94;4989646;28;20030;-89
2022/01/18 05:52:42;;;;;;;65.88;27.40;;;;;;;4.10;100.00;103708.19;4988054;28;20435;-89
2022/01/18 05:55:09;;;;;;;62.00;25.70;;;;;;;4.09;100.00;103706.38;4987141;28;20037;-89
2022/01/18 05:57:35;;;;;;;56.92;24.88;;;;;;;4.07;100.00;103699.31;4989140;28;20042;-88
2022/01/18 06:00:05;;;;;;;68.22;26.85;;;;;;;3.99;100.00;103686.84;4989586;28;20030;-89
2022/01/18 06:07:54;;;;;;;56.25;25.58;;;;;;;3.99;100.00;103693.88;4975959;28;20101;-90
2022/01/18 06:10:19;;;;;;;59.00;26.80;;;;;;;3.96;100.00;103694.69;4988847;28;20040;-90
2022/01/18 06:12:45;;;;;;;63.63;27.40;;;;;;;3.95;100.00;103695.53;4989264;28;20022;-90
2022/01/18 06:15:10;;;;;;;65.22;25.95;;;;;;;3.94;100.00;103693.75;4988225;28;20039;-90
2022/01/18 06:17:35;;;;;;;56.67;25.00;;;;;;;3.93;100.00;103689.34;4987817;28;20049;-89
2022/01/18 06:20:01;;;;;;;63.85;26.83;;;;;;;3.98;100.00;103702.63;4982349;28;20026;-90
2022/01/18 06:22:26;;;;;;;53.00;25.23;;;;;;;3.93;100.00;103704.25;4967541;28;20483;-90
2022/01/18 06:24:52;;;;;;;52.75;22.90;;;;;;;3.96;100.00;103706.97;4987388;28;20031;-90
2022/01/18 06:27:17;;;;;;;51.90;23.20;;;;;;;3.97;100.00;103707.03;4989138;28;20392;-90
2022/01/18 06:29:42;;;;;;;54.78;23.88;;;;;;;3.97;100.00;103712.28;4988730;28;20033;-90
2022/01/18 06:32:08;;;;;;;54.67;23.50;;;;;;;3.97;100.00;103704.38;4989152;28;20038;-89
2022/01/18 06:34:33;;;;;;;45.28;22.00;;;;;;;3.99;100.00;103705.28;4988163;28;20034;-89
2022/01/18 06:36:59;;;;;;;50.00;21.50;;;;;;;4.01;100.00;103707.94;4986561;28;20022;-89
2022/01/18 06:39:25;;;;;;;49.60;21.95;;;;;;;3.94;100.00;103704.31;4988391;28;20038;-90
2022/01/18 06:41:50;;;;;;;50.03;19.67;;;;;;;3.96;100.00;103699.94;4988857;28;20065;-90
2022/01/18 06:44:16;;;;;;;49.40;19.65;;;;;;;4.05;100.00;103706.28;4967009;28;20026;-90
2022/01/18 06:46:41;;;;;;;48.75;19.13;;;;;;;4.05;100.00;103701.88;4988493;28;20026;-89
2022/01/18 06:49:07;;;;;;;50.33;19.30;;;;;;;4.05;100.00;103704.53;4983935;28;20038;-89
2022/01/18 06:51:33;;;;;;;50.05;18.90;;;;;;;4.05;100.00;103711.53;4983448;28;20484;-87
2022/01/18 06:53:58;;;;;;;43.28;18.25;;;;;;;4.02;100.00;103700.97;4985430;28;20034;-89
2022/01/18 06:56:26;;;;;;;48.45;18.17;;;;;;;4.05;100.00;103712.44;4971376;28;20034;-87
2022/01/18 06:58:52;;;;;;;40.05;17.73;;;;;;;4.05;100.00;103712.44;4986336;28;20101;-89
2022/01/18 07:01:18;;;;;;;47.10;18.27;;;;;;;4.02;100.00;103712.38;4985751;28;20046;-92
2022/01/18 07:03:44;;;;;;;46.08;18.45;;;;;;;4.04;100.00;103710.66;4987008;28;20429;-91
2022/01/18 07:06:09;;;;;;;55.03;19.65;;;;;;;4.08;100.00;103717.78;4985806;28;20053;-90
2022/01/18 07:08:34;;;;;;;45.03;18.42;;;;;;;4.08;100.00;103716.91;4981886;28;20122;-91
2022/01/18 07:11:00;;;;;;;44.95;17.70;;;;;;;4.08;100.00;103716.91;4984901;28;20427;-88
2022/01/18 07:13:26;;;;;;;47.90;19.38;;;;;;;4.04;100.00;103712.41;4986456;28;20106;-85
2022/01/18 07:15:51;;;;;;;46.75;17.73;;;;;;;4.09;100.00;103724.81;4987383;28;20058;-87
2022/01/18 07:18:16;;;;;;;47.65;19.38;;;;;;;4.09;100.00;103718.66;4973611;28;20046;-88
2022/01/18 07:20:42;;;;;;;51.38;18.48;;;;;;;4.09;100.00;103723.94;4983963;28;20399;-87
2022/01/18 07:23:11;;;;;;;44.03;17.20;;;;;;;4.11;100.00;103730.16;4987384;28;20073;-87
2022/01/18 07:25:42;;;;;;;49.35;18.55;;;;;;;4.11;100.00;103733.69;4990969;28;20426;-88
2022/01/18 07:28:08;;;;;;;46.83;18.30;;;;;;;4.11;100.00;103732.78;4988477;28;20031;-89
2022/01/18 07:30:34;;;;;;;47.55;17.92;;;;;;;4.11;100.00;103732.78;4988218;28;20061;-90
2022/01/18 07:32:59;;;;;;;43.70;17.40;;;;;;;4.09;100.00;103738.00;4992922;28;20073;-88
2022/01/18 07:35:26;;;;;;;48.95;17.77;;;;;;;4.11;100.00;103738.06;4991241;28;20114;-88
2022/01/18 07:37:51;;;;;;;48.60;18.35;;;;;;;4.10;100.00;103736.28;4992175;28;20117;-90
2022/01/18 07:40:16;;;;;;;49.55;18.58;;;;;;;4.11;100.00;103738.94;4989831;28;21488;-90
2022/01/18 07:42:42;;;;;;;53.78;18.67;;;;;;;4.14;100.00;103743.38;4975307;28;20061;-90
2022/01/18 07:45:08;;;;;;;47.25;18.50;;;;;;;4.15;100.00;103745.19;4979656;28;20041;-91
2022/01/18 07:47:33;;;;;;;47.50;18.58;;;;;;;4.14;100.00;103738.09;4993048;28;20022;-87
2022/01/18 07:49:58;;;;;;;48.55;19.58;;;;;;;4.16;100.00;103741.69;4989590;28;20125;-92
2022/01/18 07:52:23;;;;;;;47.13;19.60;;;;;;;4.18;100.00;103745.22;4978519;28;20057;-89
2022/01/18 07:54:49;;;;;;;56.20;21.15;;;;;;;4.16;100.00;103733.78;4963570;28;20387;-91
2022/01/18 07:57:15;;;;;;;50.92;19.90;;;;;;;4.19;100.00;103745.28;4981806;28;20126;-89
2022/01/18 07:59:40;;;;;;;56.08;19.52;;;;;;;4.19;100.00;103744.41;4983709;28;20022;-90
2022/01/18 08:02:06;;;;;;;52.28;21.30;;;;;;;4.14;100.00;103744.28;4990928;28;20046;-91
2022/01/18 08:04:31;;;;;;;49.58;19.02;;;;;;;4.18;100.00;103747.84;4988578;28;20038;-90
2022/01/18 08:06:56;;;;;;;50.83;19.77;;;;;;;4.16;100.00;103736.41;4986459;28;20031;-91
2022/01/18 08:09:22;;;;;;;54.92;19.85;;;;;;;4.22;100.00;103747.06;4981471;28;20400;-90
2022/01/18 08:11:47;;;;;;;52.92;20.17;;;;;;;4.24;100.00;103750.66;4986905;28;20030;-91
2022/01/18 08:14:14;;;;;;;49.90;18.38;;;;;;;4.20;100.00;103749.69;4990739;28;20022;-93
2022/01/18 08:16:59;;;;;;;51.72;19.90;;;;;;;4.27;100.00;103758.63;4990488;28;20026;-90
2022/01/18 08:19:25;;;;;;;48.17;18.70;;;;;;;4.28;100.00;103744.59;4988870;28;20460;-93
2022/01/18 08:21:51;;;;;;;47.28;19.45;;;;;;;4.32;100.00;103746.44;4992133;28;20084;-91
2022/01/18 08:24:16;;;;;;;57.22;20.27;;;;;;;4.29;100.00;103733.19;4990099;28;20039;-88
2022/01/18 08:26:41;;;;;;;58.10;19.95;;;;;;;4.38;100.00;103741.28;4971872;28;20031;-88
2022/01/18 08:29:08;;;;;;;52.60;20.42;;;;;;;4.42;100.00;103744.88;4986656;28;20117;-88
2022/01/18 08:31:33;;;;;;;51.97;20.45;;;;;;;4.42;100.00;103744.88;4989155;28;20161;-89
2022/01/18 08:33:59;;;;;;;49.80;20.02;;;;;;;4.45;100.00;103744.94;4988073;28;20506;-89
2022/01/18 08:36:24;;;;;;;48.08;18.67;;;;;;;4.45;100.00;103737.91;4980960;28;20046;-91
2022/01/18 08:38:49;;;;;;;57.88;20.73;;;;;;;4.49;100.00;103737.13;4979726;28;20032;-86
2022/01/18 08:41:15;;;;;;;49.70;19.05;;;;;;;4.53;100.00;103750.38;4997108;28;20117;-87
2022/01/18 08:43:40;;;;;;;49.85;20.52;;;;;;;4.55;100.00;103748.66;4992551;28;20380;-90
2022/01/18 08:46:06;;;;;;;53.63;18.55;;;;;;;4.62;100.00;103748.81;4991702;28;20030;-87
2022/01/18 08:48:31;;;;;;;59.13;19.20;;;;;;;4.62;100.00;103734.75;4989573;28;20495;-88
2022/01/18 08:50:57;;;;;;;61.63;20.58;;;;;;;4.68;100.00;103745.41;4989071;28;20117;-87
2022/01/18 08:53:22;;;;;;;55.88;19.35;;;;;;;4.67;100.00;103741.88;4990758;28;20524;-88
2022/01/18 08:55:48;;;;;;;56.35;18.92;;;;;;;4.77;100.00;103744.72;4990749;28;20142;-89
2022/01/18 08:58:13;;;;;;;52.13;19.13;;;;;;;4.76;100.00;103741.16;4984574;28;20071;-88
2022/01/18 09:00:39;;;;;;;52.58;18.20;;;;;;;4.80;100.00;103745.63;4988725;28;20030;-87
2022/01/18 09:03:05;;;;;;;58.28;20.23;;;;;;;4.85;100.00;103759.84;4990684;28;20022;-87
2022/01/18 09:05:31;;;;;;;54.67;18.55;;;;;;;4.84;100.00;103741.31;4989692;28;20533;-87
2022/01/18 09:07:59;;;;;;;54.25;19.45;;;;;;;4.91;100.00;103762.59;4990186;28;20034;-87
2022/01/18 09:10:26;;;;;;;59.65;20.38;;;;;;;4.89;100.00;103737.00;4987309;28;20022;-87
2022/01/18 09:12:51;;;;;;;60.63;19.73;;;;;;;4.96;100.00;103733.63;4971673;28;20042;-86
2022/01/18 09:15:17;;;;;;;57.42;20.85;;;;;;;5.06;100.00;103745.25;4989968;28;20023;-87
2022/01/18 09:17:43;;;;;;;57.03;20.10;;;;;;;5.15;100.00;103742.78;5001843;28;20047;-87
2022/01/18 09:20:11;;;;;;;58.33;19.35;;;;;;;5.21;100.00;103748.16;4990048;28;20227;-86
2022/01/18 09:22:38;;;;;;;52.17;18.80;;;;;;;5.31;100.00;103758.06;4991632;28;20022;-87
2022/01/18 09:25:07;;;;;;;48.80;18.10;;;;;;;5.34;100.00;103752.81;4989521;28;20113;-85
2022/01/18 09:27:33;;;;;;;62.90;19.30;;;;;;;5.35;100.00;103757.25;4988625;28;20022;-87
2022/01/18 09:29:58;;;;;;;52.50;18.48;;;;;;;5.42;100.00;103753.81;4980964;28;20431;-87
2022/01/18 09:32:24;;;;;;;55.95;19.48;;;;;;;5.47;100.00;103760.06;4990435;28;20030;-88
2022/01/18 09:34:50;;;;;;;49.90;19.02;;;;;;;5.52;100.00;103751.34;4990664;28;20026;-88
2022/01/18 09:37:16;;;;;;;49.75;18.33;;;;;;;5.62;100.00;103764.72;4989583;28;20042;-88
2022/01/18 09:39:41;;;;;;;59.63;18.65;;;;;;;5.69;100.00;103760.44;4987646;28;20031;-88
2022/01/18 09:42:09;;;;;;;53.28;18.08;;;;;;;5.70;100.00;103754.28;4972517;28;20542;-88
2022/01/18 09:44:35;;;;;;;51.08;18.33;;;;;;;5.82;100.00;103762.41;4982675;28;20111;-88
2022/01/18 09:47:01;;;;;;;57.60;18.15;;;;;;;5.93;100.00;103762.59;4990181;28;20026;-88
2022/01/18 09:49:26;;;;;;;55.80;19.48;;;;;;;5.97;100.00;103765.31;4986600;28;20049;-87
2022/01/18 09:51:52;;;;;;;54.60;18.95;;;;;;;6.15;100.00;103775.28;4990012;28;20110;-88
2022/01/18 09:54:17;;;;;;;43.33;17.42;;;;;;;6.16;100.00;103763.84;4989813;28;20459;-89
2022/01/18 09:56:43;;;;;;;43.97;18.52;;;;;;;6.37;100.00;103768.53;4990755;28;20033;-91
2022/01/18 09:59:08;;;;;;;46.65;17.85;;;;;;;6.46;100.00;103773.06;4987515;28;20022;-92
2022/01/18 10:01:35;;;;;;;46.95;18.63;;;;;;;6.54;100.00;103770.50;4995076;28;20032;-92
2022/01/18 10:04:17;;;;;;;46.55;17.88;;;;;;;6.75;100.00;103776.06;4990034;28;20163;-94
2022/01/18 10:06:45;;;;;;;45.78;18.70;;;;;;;6.78;100.00;103768.16;4988078;28;20030;-94
2022/01/18 10:09:15;;;;;;;51.13;19.38;;;;;;;6.91;99.74;103775.38;4987090;28;20019;-91
2022/01/18 10:12:02;;;;;;;44.22;18.30;;;;;;;7.01;100.00;103781.66;4972059;28;20037;-89
2022/01/18 10:14:29;;;;;;;40.92;17.70;;;;;;;7.04;99.19;103779.03;4988201;28;20062;-90
2022/01/18 10:16:54;;;;;;;41.40;17.63;;;;;;;7.17;98.93;103780.06;4970767;28;20033;-87
2022/01/18 10:19:33;;;;;;;38.28;17.27;;;;;;;7.27;98.79;103775.72;4979807;28;20038;-87
2022/01/18 10:22:14;;;;;;;38.42;17.60;;;;;;;7.32;98.05;103768.72;4985292;28;20026;-87
2022/01/18 10:24:40;;;;;;;40.38;17.30;;;;;;;7.41;97.12;103772.34;4981713;28;20058;-88
2022/01/18 10:27:07;;;;;;;39.45;17.98;;;;;;;7.53;95.60;103776.00;4988273;28;20035;-87
2022/01/18 10:29:37;;;;;;;44.50;18.40;;;;;;;7.60;95.43;103765.44;4986731;28;20037;-95
2022/01/18 10:32:17;;;;;;;40.90;17.95;;;;;;;7.69;95.45;103761.97;4989061;28;20037;-93
2022/01/18 10:37:18;;;;;;;44.60;20.35;;;;;;;7.90;93.57;103759.50;4987804;28;20038;-92
2022/01/18 10:39:54;;;;;;;38.78;17.73;;;;;;;8.01;93.70;103759.53;4986666;28;20030;-90
2022/01/18 10:42:23;;;;;;;44.63;18.02;;;;;;;8.17;91.87;103757.88;4980065;28;20102;-90
2022/01/18 10:44:58;;;;;;;41.47;18.42;;;;;;;8.26;92.72;103749.97;4988093;28;20061;-91
2022/01/18 10:47:25;;;;;;;37.03;18.08;;;;;;;8.37;92.09;103750.94;4981424;28;20041;-90
2022/01/18 10:49:50;;;;;;;38.25;18.77;;;;;;;8.34;90.14;103755.31;4979006;28;20373;-91
2022/01/18 10:52:22;;;;;;;38.10;18.80;;;;;;;8.17;91.41;103740.19;4976973;28;20026;-91
2022/01/18 10:54:52;;;;;;;37.70;18.83;;;;;;;8.17;91.26;103742.84;4994075;28;20073;-91
2022/01/18 10:57:29;;;;;;;37.15;17.65;;;;;;;8.25;92.08;103745.53;4992240;28;20046;-89
2022/01/18 10:59:57;;;;;;;38.50;19.10;;;;;;;8.23;90.87;103739.31;4992859;28;20041;-89
2022/01/18 11:02:23;;;;;;;39.33;19.23;;;;;;;8.19;90.54;103735.78;4994256;28;20034;-86
2022/01/18 11:04:55;;;;;;;39.58;19.33;;;;;;;8.22;90.91;103732.25;4993193;28;20031;-92
2022/01/18 11:07:25;;;;;;;43.45;20.20;;;;;;;8.27;90.04;103743.75;4991059;28;20050;-91
2022/01/18 11:09:51;;;;;;;42.78;19.05;;;;;;;8.30;90.47;103743.78;4992784;28;20038;-93
2022/01/18 11:12:20;;;;;;;38.72;19.77;;;;;;;8.34;90.49;103737.63;4992772;28;20022;-93
2022/01/18 11:14:51;;;;;;;35.35;19.60;;;;;;;8.39;89.75;103732.34;4992983;28;20033;-88
2022/01/18 11:17:25;;;;;;;43.20;19.50;;;;;;;8.34;89.38;103734.97;4996966;28;20053;-89
2022/01/18 11:19:54;;;;;;;40.63;19.85;;;;;;;8.35;89.32;103739.38;4993227;28;20392;-93
2022/01/18 11:22:24;;;;;;;44.65;20.30;;;;;;;8.32;89.26;103733.16;4996714;28;20081;-96
2022/01/18 11:24:50;;;;;;;43.55;20.48;;;;;;;8.37;88.77;103721.75;4976482;28;20539;-94
2022/01/18 11:27:15;;;;;;;45.50;20.67;;;;;;;8.52;88.63;103722.69;4989776;28;20101;-84
2022/01/18 11:29:42;;;;;;;48.83;19.75;;;;;;;8.65;87.62;103721.84;4989946;28;20388;-84
2022/01/18 11:32:09;;;;;;;43.22;20.15;;;;;;;8.78;87.30;103720.09;4989946;28;20030;-91
2022/01/18 11:35:07;;;;;;;41.75;19.30;;;;;;;8.97;88.93;103717.50;4995182;28;20081;-92
2022/01/18 11:37:50;;;;;;;42.35;18.52;;;;;;;9.15;88.14;103713.06;4989710;28;20130;-91
2022/01/18 11:40:17;;;;;;;37.30;16.67;;;;;;;9.12;85.15;103708.66;4992486;28;20080;-87
2022/01/18 11:43:03;;;;;;;39.72;17.23;;;;;;;9.08;86.91;103706.88;4991878;28;20049;-91
2022/01/18 11:45:29;;;;;;;38.60;17.42;;;;;;;8.89;84.52;103713.94;4990400;28;20042;-90
2022/01/18 11:48:03;;;;;;;32.63;15.88;;;;;;;8.75;85.79;103715.69;4988690;28;20030;-88
2022/01/18 11:50:32;;;;;;;35.97;16.73;;;;;;;8.72;84.84;103718.31;4954679;28;20035;-94
2022/01/18 11:53:22;;;;;;;33.03;14.82;;;;;;;8.74;86.92;103711.25;4984773;28;20021;-93
2022/01/18 11:55:48;;;;;;;32.65;15.50;;;;;;;8.76;85.06;103713.91;4993377;28;20030;-90
2022/01/18 11:58:13;;;;;;;36.67;15.85;;;;;;;8.79;84.27;103709.50;4989098;28;20133;-92
2022/01/18 12:00:51;;;;;;;35.75;15.50;;;;;;;8.87;85.23;103718.38;5005748;28;20456;-91
2022/01/18 12:03:31;;;;;;;33.03;15.45;;;;;;;8.93;85.24;103706.84;4978805;28;20041;-92
2022/01/18 12:05:59;;;;;;;36.05;16.48;;;;;;;9.00;84.43;103707.78;4992933;28;20030;-93
2022/01/18 12:08:30;;;;;;;41.72;17.10;;;;;;;9.01;83.29;103694.47;4989889;28;20034;-93
2022/01/18 12:10:55;;;;;;;33.03;14.95;;;;;;;9.10;83.90;103698.91;4993628;28;20073;-92
2022/01/18 12:13:30;;;;;;;35.38;15.50;;;;;;;9.28;83.54;103696.28;4973504;28;20072;-93
2022/01/18 12:15:58;;;;;;;37.42;15.10;;;;;;;9.27;81.84;103682.97;4993390;28;20030;-92
2022/01/18 12:18:30;;;;;;;30.20;14.25;;;;;;;9.22;82.00;103685.63;4991366;28;20022;-93
2022/01/18 12:21:00;;;;;;;33.20;14.68;;;;;;;9.23;81.35;103690.06;4990365;28;20033;-93
2022/01/18 12:23:31;;;;;;;34.63;15.45;;;;;;;9.28;81.54;103688.31;4991466;28;20046;-92
2022/01/18 12:26:00;;;;;;;31.42;15.20;;;;;;;9.32;81.48;103682.09;4992822;28;20038;-88